Камери на живо
METAR for:LBGO (Gorna Orechovista Ar, LO, BU)
Text:LBGO 270430Z AUTO 00000KT 9999 NCD 08/08 Q1019 TEMPO 1500 BR
Temperature: 8.0°C ( 46°F)
Dewpoint: 8.0°C ( 46°F) [RH = 100%]
Pressure (altimeter):30.09 inches Hg (1019.0 mb)
Winds:calm
Visibility:6 or more sm (10+ km)
Ceiling:at least 12,000 feet AGL
Clouds:sky clear below 12,000 feet AGL

TAF for:LBGO (Gorna Orechovista Ar, LO, BU) issued at 2300 UTC 26 Sep 2021
Text:TAF LBGO 262300Z 2700/2724 VRB04KT CAVOK
Forecast period:0000 to 1500 UTC 27 September 2021
Forecast type:FROM: standard forecast or significant change
Winds:variable direction winds at 5 MPH (4 knots; 2.1 m/s)
Visibility:6 or more sm (10+ km)
Clouds:missing
Weather:NSW (no significant weather)
Text:TEMPO 2702/2705 4000 BR SCT010
Forecast period:0200 to 0500 UTC 27 September 2021
Forecast type:TEMPORARY: The following changes expected for less than half the time period
Visibility: 2.49 sm ( 4.01 km)
Ceiling:at least 12,000 feet AGL
Clouds: scattered clouds at 1000 feet AGL
Weather:BR (mist)
Text:BECMG 2715/2717 08010KT
Forecast period:1500 UTC 27 September 2021 to 0000 UTC 28 September 2021
Forecast type:BECOMING: Conditions expected to become as follows by 1700 UTC 27 September 2021
Winds:from the E (80 degrees) at 12 MPH (10 knots; 5.1 m/s)
Visibility:6 or more sm (10+ km)
Clouds:missing
Weather:NSW (no significant weather)